sensor_id;sensor_type;location;lat;lon;timestamp;pressure;altitude;pressure_sealevel;temperature;humidity
34696;BME280;20918;51.138;17.370;2022-12-05T00:02:21;100574.80;;;1.23;96.70
34696;BME280;20918;51.138;17.370;2022-12-05T00:05:22;100577.80;;;1.24;96.77
34696;BME280;20918;51.138;17.370;2022-12-05T00:08:23;100579.47;;;1.25;96.90
34696;BME280;20918;51.138;17.370;2022-12-05T00:11:27;100571.81;;;1.22;96.85
34696;BME280;20918;51.138;17.370;2022-12-05T00:14:30;100570.16;;;1.21;96.85
34696;BME280;20918;51.138;17.370;2022-12-05T00:17:31;100573.41;;;1.18;96.74
34696;BME280;20918;51.138;17.370;2022-12-05T00:20:32;100571.45;;;1.14;96.74
34696;BME280;20918;51.138;17.370;2022-12-05T00:23:36;100571.28;;;1.10;96.76
34696;BME280;20918;51.138;17.370;2022-12-05T00:26:37;100567.53;;;1.07;96.79
34696;BME280;20918;51.138;17.370;2022-12-05T00:29:38;100557.07;;;1.07;96.84
34696;BME280;20918;51.138;17.370;2022-12-05T00:32:42;100547.67;;;1.04;96.79
34696;BME280;20918;51.138;17.370;2022-12-05T00:35:43;100546.45;;;1.03;96.82
34696;BME280;20918;51.138;17.370;2022-12-05T00:38:44;100552.23;;;1.01;96.90
34696;BME280;20918;51.138;17.370;2022-12-05T00:41:45;100561.57;;;0.98;96.98
34696;BME280;20918;51.138;17.370;2022-12-05T00:44:48;100549.05;;;0.96;96.94
34696;BME280;20918;51.138;17.370;2022-12-05T00:47:50;100566.16;;;0.94;96.97
34696;BME280;20918;51.138;17.370;2022-12-05T00:51:10;100560.64;;;0.92;97.09
34696;BME280;20918;51.138;17.370;2022-12-05T00:54:12;100564.20;;;0.91;97.21
34696;BME280;20918;51.138;17.370;2022-12-05T00:57:14;100546.83;;;0.89;97.19
34696;BME280;20918;51.138;17.370;2022-12-05T01:00:16;100559.89;;;0.89;97.19
34696;BME280;20918;51.138;17.370;2022-12-05T01:03:18;100546.47;;;0.88;97.25
34696;BME280;20918;51.138;17.370;2022-12-05T01:06:19;100549.08;;;0.88;97.40
34696;BME280;20918;51.138;17.370;2022-12-05T01:09:21;100546.27;;;0.84;97.35
34696;BME280;20918;51.138;17.370;2022-12-05T01:12:23;100561.31;;;0.88;97.33
34696;BME280;20918;51.138;17.370;2022-12-05T01:15:24;100560.00;;;0.88;97.38
34696;BME280;20918;51.138;17.370;2022-12-05T01:18:26;100570.45;;;0.88;97.38
34696;BME280;20918;51.138;17.370;2022-12-05T01:21:30;100555.25;;;0.87;97.36
34696;BME280;20918;51.138;17.370;2022-12-05T01:24:31;100554.30;;;0.88;97.39
34696;BME280;20918;51.138;17.370;2022-12-05T01:27:32;100558.22;;;0.88;97.30
34696;BME280;20918;51.138;17.370;2022-12-05T01:30:38;100559.53;;;0.88;97.30
34696;BME280;20918;51.138;17.370;2022-12-05T01:33:40;100554.30;;;0.88;97.26
34696;BME280;20918;51.138;17.370;2022-12-05T01:36:41;100544.33;;;0.88;97.24
34696;BME280;20918;51.138;17.370;2022-12-05T01:39:42;100558.70;;;0.88;97.25
34696;BME280;20918;51.138;17.370;2022-12-05T01:42:43;100562.14;;;0.88;97.20
34696;BME280;20918;51.138;17.370;2022-12-05T01:45:45;100552.05;;;0.89;97.27
34696;BME280;20918;51.138;17.370;2022-12-05T01:48:46;100539.83;;;0.90;97.33
34696;BME280;20918;51.138;17.370;2022-12-05T01:51:52;100543.38;;;0.89;97.31
34696;BME280;20918;51.138;17.370;2022-12-05T01:54:59;100548.13;;;0.89;97.22
34696;BME280;20918;51.138;17.370;2022-12-05T01:58:02;100549.91;;;0.89;97.20
34696;BME280;20918;51.138;17.370;2022-12-05T02:01:08;100545.52;;;0.89;97.23
34696;BME280;20918;51.138;17.370;2022-12-05T02:04:13;100550.75;;;0.89;97.24
34696;BME280;20918;51.138;17.370;2022-12-05T02:07:12;100554.66;;;0.89;97.25
34696;BME280;20918;51.138;17.370;2022-12-05T02:10:14;100559.89;;;0.89;97.21
34696;BME280;20918;51.138;17.370;2022-12-05T02:17:10;100552.16;;;0.88;97.32
34696;BME280;20918;51.138;17.370;2022-12-05T02:30:51;100541.98;;;0.83;97.31
34696;BME280;20918;51.138;17.370;2022-12-05T02:37:52;100528.09;;;0.83;97.42
34696;BME280;20918;51.138;17.370;2022-12-05T02:44:26;100522.77;;;0.77;97.41
34696;BME280;20918;51.138;17.370;2022-12-05T02:47:30;100521.83;;;0.78;97.53
34696;BME280;20918;51.138;17.370;2022-12-05T02:50:35;100517.91;;;0.78;97.51
34696;BME280;20918;51.138;17.370;2022-12-05T02:53:39;100514.83;;;0.79;97.53
34696;BME280;20918;51.138;17.370;2022-12-05T02:56:43;100518.86;;;0.77;97.52
34696;BME280;20918;51.138;17.370;2022-12-05T02:59:49;100509.23;;;0.78;97.51
34696;BME280;20918;51.138;17.370;2022-12-05T03:02:55;100515.88;;;0.76;97.52
34696;BME280;20918;51.138;17.370;2022-12-05T03:09:43;100513.82;;;0.74;97.61
34696;BME280;20918;51.138;17.370;2022-12-05T03:12:43;100529.49;;;0.74;97.58
34696;BME280;20918;51.138;17.370;2022-12-05T03:15:49;100520.83;;;0.74;97.55
34696;BME280;20918;51.138;17.370;2022-12-05T03:18:56;100523.80;;;0.75;97.50
34696;BME280;20918;51.138;17.370;2022-12-05T03:22:06;100528.55;;;0.75;97.50
34696;BME280;20918;51.138;17.370;2022-12-05T03:25:07;100509.79;;;0.76;97.52
34696;BME280;20918;51.138;17.370;2022-12-05T03:28:20;100511.09;;;0.76;97.49
34696;BME280;20918;51.138;17.370;2022-12-05T03:38:32;100504.28;;;0.73;97.55
34696;BME280;20918;51.138;17.370;2022-12-05T03:41:44;100512.13;;;0.73;97.58
34696;BME280;20918;51.138;17.370;2022-12-05T03:44:50;100512.70;;;0.71;97.59
34696;BME280;20918;51.138;17.370;2022-12-05T03:48:14;100501.86;;;0.70;97.55
34696;BME280;20918;51.138;17.370;2022-12-05T03:51:24;100504.47;;;0.70;97.63
34696;BME280;20918;51.138;17.370;2022-12-05T03:54:30;100498.53;;;0.68;97.60
34696;BME280;20918;51.138;17.370;2022-12-05T03:57:44;100484.61;;;0.67;97.64
34696;BME280;20918;51.138;17.370;2022-12-05T04:00:50;100492.55;;;0.66;97.59
34696;BME280;20918;51.138;17.370;2022-12-05T04:04:04;100497.77;;;0.66;97.62
34696;BME280;20918;51.138;17.370;2022-12-05T04:07:04;100487.41;;;0.64;97.57
34696;BME280;20918;51.138;17.370;2022-12-05T04:10:11;100501.77;;;0.64;97.62
34696;BME280;20918;51.138;17.370;2022-12-05T04:13:40;100493.66;;;0.62;97.61
34696;BME280;20918;51.138;17.370;2022-12-05T04:16:49;100501.49;;;0.62;97.58
34696;BME280;20918;51.138;17.370;2022-12-05T04:20:09;100499.82;;;0.61;97.60
34696;BME280;20918;51.138;17.370;2022-12-05T04:23:32;100499.35;;;0.61;97.57
34696;BME280;20918;51.138;17.370;2022-12-05T04:26:39;100492.46;;;0.60;97.55
34696;BME280;20918;51.138;17.370;2022-12-05T04:29:51;100478.93;;;0.61;97.53
34696;BME280;20918;51.138;17.370;2022-12-05T04:33:07;100461.13;;;0.60;97.54
34696;BME280;20918;51.138;17.370;2022-12-05T04:36:18;100473.90;;;0.58;97.55
34696;BME280;20918;51.138;17.370;2022-12-05T04:39:47;100477.06;;;0.56;97.52
34696;BME280;20918;51.138;17.370;2022-12-05T04:42:54;100488.45;;;0.55;97.53
34696;BME280;20918;51.138;17.370;2022-12-05T04:45:57;100482.76;;;0.55;97.52
34696;BME280;20918;51.138;17.370;2022-12-05T04:49:01;100467.92;;;0.56;97.54
34696;BME280;20918;51.138;17.370;2022-12-05T04:52:10;100478.37;;;0.56;97.57
34696;BME280;20918;51.138;17.370;2022-12-05T04:55:14;100479.48;;;0.59;97.56
34696;BME280;20918;51.138;17.370;2022-12-05T04:58:20;100474.26;;;0.59;97.54
34696;BME280;20918;51.138;17.370;2022-12-05T05:01:34;100478.65;;;0.58;97.49
34696;BME280;20918;51.138;17.370;2022-12-05T05:04:44;100473.34;;;0.60;97.47
34696;BME280;20918;51.138;17.370;2022-12-05T05:07:50;100485.46;;;0.61;97.42
34696;BME280;20918;51.138;17.370;2022-12-05T05:11:40;100465.04;;;0.60;97.43
34696;BME280;20918;51.138;17.370;2022-12-05T05:14:22;100466.82;;;0.60;97.43
34696;BME280;20918;51.138;17.370;2022-12-05T05:17:23;100471.02;;;0.62;97.37
34696;BME280;20918;51.138;17.370;2022-12-05T05:20:24;100476.12;;;0.64;97.34
34696;BME280;20918;51.138;17.370;2022-12-05T05:23:26;100478.19;;;0.66;97.32
34696;BME280;20918;51.138;17.370;2022-12-05T05:26:29;100485.55;;;0.66;97.22
34696;BME280;20918;51.138;17.370;2022-12-05T05:29:31;100485.55;;;0.66;97.12
34696;BME280;20918;51.138;17.370;2022-12-05T05:32:32;100484.25;;;0.66;97.06
34696;BME280;20918;51.138;17.370;2022-12-05T05:35:36;100491.13;;;0.67;97.05
34696;BME280;20918;51.138;17.370;2022-12-05T05:38:40;100483.41;;;0.66;97.00
34696;BME280;20918;51.138;17.370;2022-12-05T05:41:43;100493.50;;;0.65;96.98
34696;BME280;20918;51.138;17.370;2022-12-05T05:44:44;100501.33;;;0.65;96.99
34696;BME280;20918;51.138;17.370;2022-12-05T05:47:46;100495.16;;;0.66;97.00
34696;BME280;20918;51.138;17.370;2022-12-05T05:50:48;100500.20;;;0.69;96.99
34696;BME280;20918;51.138;17.370;2022-12-05T05:53:49;100494.50;;;0.70;96.97
34696;BME280;20918;51.138;17.370;2022-12-05T05:56:50;100491.05;;;0.69;96.90
34696;BME280;20918;51.138;17.370;2022-12-05T05:59:51;100484.05;;;0.70;96.84
34696;BME280;20918;51.138;17.370;2022-12-05T06:02:52;100490.50;;;0.71;96.82
34696;BME280;20918;51.138;17.370;2022-12-05T06:05:57;100495.61;;;0.73;96.82
34696;BME280;20918;51.138;17.370;2022-12-05T06:08:59;100499.92;;;0.74;96.74
34696;BME280;20918;51.138;17.370;2022-12-05T06:12:00;100499.92;;;0.74;96.71
34696;BME280;20918;51.138;17.370;2022-12-05T06:15:02;100508.48;;;0.76;96.65
34696;BME280;20918;51.138;17.370;2022-12-05T06:18:03;100511.09;;;0.76;96.62
34696;BME280;20918;51.138;17.370;2022-12-05T06:21:05;100511.84;;;0.78;96.62
34696;BME280;20918;51.138;17.370;2022-12-05T06:24:08;100514.74;;;0.80;96.54
34696;BME280;20918;51.138;17.370;2022-12-05T06:27:09;100507.66;;;0.82;96.47
34696;BME280;20918;51.138;17.370;2022-12-05T06:30:11;100514.08;;;0.84;96.44
34696;BME280;20918;51.138;17.370;2022-12-05T06:33:13;100508.02;;;0.83;96.35
34696;BME280;20918;51.138;17.370;2022-12-05T06:36:18;100499.08;;;0.87;96.33
34696;BME280;20918;51.138;17.370;2022-12-05T06:39:20;100513.25;;;0.91;96.27
34696;BME280;20918;51.138;17.370;2022-12-05T06:42:21;100502.05;;;0.88;96.12
34696;BME280;20918;51.138;17.370;2022-12-05T06:45:22;100503.72;;;0.89;96.10
34696;BME280;20918;51.138;17.370;2022-12-05T06:48:23;100494.48;;;0.91;96.11
34696;BME280;20918;51.138;17.370;2022-12-05T06:51:24;100504.47;;;0.92;96.00
34696;BME280;20918;51.138;17.370;2022-12-05T06:54:25;100492.71;;;0.92;95.96
34696;BME280;20918;51.138;17.370;2022-12-05T06:57:30;100503.91;;;0.94;95.97
34696;BME280;20918;51.138;17.370;2022-12-05T07:00:31;100514.53;;;0.98;95.98
34696;BME280;20918;51.138;17.370;2022-12-05T07:03:51;100515.28;;;1.00;95.93
34696;BME280;20918;51.138;17.370;2022-12-05T07:06:54;100512.12;;;1.02;95.90
34696;BME280;20918;51.138;17.370;2022-12-05T07:09:56;100503.33;;;1.03;95.80
34696;BME280;20918;51.138;17.370;2022-12-05T07:12:57;100505.94;;;1.03;95.76
34696;BME280;20918;51.138;17.370;2022-12-05T07:15:58;100514.62;;;1.03;95.75
34696;BME280;20918;51.138;17.370;2022-12-05T07:18:59;100508.55;;;1.03;95.78
34696;BME280;20918;51.138;17.370;2022-12-05T07:22:01;100502.30;;;1.05;95.78
34696;BME280;20918;51.138;17.370;2022-12-05T07:25:03;100498.37;;;1.05;95.75
34696;BME280;20918;51.138;17.370;2022-12-05T07:28:04;100503.50;;;1.07;95.72
34696;BME280;20918;51.138;17.370;2022-12-05T07:31:11;100495.30;;;1.06;95.65
34696;BME280;20918;51.138;17.370;2022-12-05T07:34:14;100489.12;;;1.07;95.68
34696;BME280;20918;51.138;17.370;2022-12-05T07:37:15;100492.01;;;1.09;95.76
34696;BME280;20918;51.138;17.370;2022-12-05T07:40:16;100504.52;;;1.11;95.71
34696;BME280;20918;51.138;17.370;2022-12-05T07:43:17;100505.47;;;1.10;95.58
34696;BME280;20918;51.138;17.370;2022-12-05T07:46:19;100511.53;;;1.11;95.57
34696;BME280;20918;51.138;17.370;2022-12-05T07:49:20;100498.73;;;1.14;95.64
34696;BME280;20918;51.138;17.370;2022-12-05T07:52:21;100501.83;;;1.13;95.54
34696;BME280;20918;51.138;17.370;2022-12-05T07:55:23;100507.89;;;1.14;95.54
34696;BME280;20918;51.138;17.370;2022-12-05T07:58:24;100501.83;;;1.13;95.48
34696;BME280;20918;51.138;17.370;2022-12-05T08:01:25;100514.31;;;1.15;95.46
34696;BME280;20918;51.138;17.370;2022-12-05T08:04:28;100502.55;;;1.15;95.41
34696;BME280;20918;51.138;17.370;2022-12-05T08:07:29;100516.92;;;1.15;95.36
34696;BME280;20918;51.138;17.370;2022-12-05T08:10:30;100505.91;;;1.17;95.43
34696;BME280;20918;51.138;17.370;2022-12-05T08:13:32;100515.89;;;1.18;95.41
34696;BME280;20918;51.138;17.370;2022-12-05T08:16:33;100516.17;;;1.20;95.43
34696;BME280;20918;51.138;17.370;2022-12-05T08:19:35;100524.29;;;1.23;95.43
34696;BME280;20918;51.138;17.370;2022-12-05T08:22:36;100530.16;;;1.26;95.44
34696;BME280;20918;51.138;17.370;2022-12-05T08:25:37;100531.27;;;1.29;95.36
34696;BME280;20918;51.138;17.370;2022-12-05T08:28:38;100524.92;;;1.33;95.32
34696;BME280;20918;51.138;17.370;2022-12-05T08:31:45;100526.59;;;1.34;95.16
34696;BME280;20918;51.138;17.370;2022-12-05T08:34:48;100526.98;;;1.36;95.18
34696;BME280;20918;51.138;17.370;2022-12-05T08:37:49;100528.64;;;1.37;95.04
34696;BME280;20918;51.138;17.370;2022-12-05T08:40:51;100523.41;;;1.37;95.08
34696;BME280;20918;51.138;17.370;2022-12-05T08:43:52;100535.94;;;1.39;95.10
34696;BME280;20918;51.138;17.370;2022-12-05T08:46:54;100542.27;;;1.42;95.16
34696;BME280;20918;51.138;17.370;2022-12-05T08:49:55;100537.68;;;1.45;95.10
34696;BME280;20918;51.138;17.370;2022-12-05T08:52:56;100541.13;;;1.46;95.03
34696;BME280;20918;51.138;17.370;2022-12-05T08:56:02;100536.64;;;1.48;95.04
34696;BME280;20918;51.138;17.370;2022-12-05T08:59:05;100544.41;;;1.49;95.04
34696;BME280;20918;51.138;17.370;2022-12-05T09:02:08;100541.12;;;1.53;95.09
34696;BME280;20918;51.138;17.370;2022-12-05T09:05:10;100544.09;;;1.54;95.02
34696;BME280;20918;51.138;17.370;2022-12-05T09:08:13;100549.13;;;1.57;95.04
34696;BME280;20918;51.138;17.370;2022-12-05T09:11:20;100554.74;;;1.58;95.03
34696;BME280;20918;51.138;17.370;2022-12-05T09:14:23;100551.45;;;1.62;95.17
34696;BME280;20918;51.138;17.370;2022-12-05T09:17:24;100550.42;;;1.64;95.02
34696;BME280;20918;51.138;17.370;2022-12-05T09:20:25;100551.73;;;1.64;94.96
34696;BME280;20918;51.138;17.370;2022-12-05T09:23:27;100544.63;;;1.66;95.02
34696;BME280;20918;51.138;17.370;2022-12-05T09:26:28;100543.75;;;1.73;95.14
34696;BME280;20918;51.138;17.370;2022-12-05T09:29:30;100538.31;;;1.76;95.13
34696;BME280;20918;51.138;17.370;2022-12-05T09:32:31;100534.82;;;1.83;95.18
34696;BME280;20918;51.138;17.370;2022-12-05T09:35:32;100536.40;;;1.85;95.10
34696;BME280;20918;51.138;17.370;2022-12-05T09:38:33;100537.06;;;1.89;95.15
34696;BME280;20918;51.138;17.370;2022-12-05T09:41:55;100532.74;;;1.88;94.96
34696;BME280;20918;51.138;17.370;2022-12-05T09:48:37;100526.77;;;1.86;94.90
34696;BME280;20918;51.138;17.370;2022-12-05T09:51:45;100522.01;;;1.85;94.99
34696;BME280;20918;51.138;17.370;2022-12-05T09:54:48;100514.27;;;1.84;94.98
34696;BME280;20918;51.138;17.370;2022-12-05T09:57:55;100515.85;;;1.86;95.08
34696;BME280;20918;51.138;17.370;2022-12-05T10:01:03;100506.97;;;1.89;95.09
34696;BME280;20918;51.138;17.370;2022-12-05T10:08:16;100506.22;;;1.87;95.08
34696;BME280;20918;51.138;17.370;2022-12-05T10:11:57;100504.70;;;1.90;95.09
34696;BME280;20918;51.138;17.370;2022-12-05T10:15:15;100498.52;;;1.91;95.14
34696;BME280;20918;51.138;17.370;2022-12-05T10:18:31;100505.80;;;1.93;95.21
34696;BME280;20918;51.138;17.370;2022-12-05T10:21:40;100501.31;;;1.95;95.19
34696;BME280;20918;51.138;17.370;2022-12-05T10:24:51;100497.27;;;1.96;95.07
34696;BME280;20918;51.138;17.370;2022-12-05T10:28:05;100497.66;;;1.97;95.04
34696;BME280;20918;51.138;17.370;2022-12-05T10:31:11;100501.11;;;1.98;94.94
34696;BME280;20918;51.138;17.370;2022-12-05T10:34:37;100495.40;;;1.98;94.92
34696;BME280;20918;51.138;17.370;2022-12-05T10:37:23;100491.47;;;1.98;94.83
34696;BME280;20918;51.138;17.370;2022-12-05T10:40:39;100489.87;;;2.03;94.95
34696;BME280;20918;51.138;17.370;2022-12-05T10:43:32;100485.14;;;2.08;94.97
34696;BME280;20918;51.138;17.370;2022-12-05T10:46:34;100484.01;;;2.12;94.90
34696;BME280;20918;51.138;17.370;2022-12-05T10:49:36;100488.47;;;2.17;94.85
34696;BME280;20918;51.138;17.370;2022-12-05T10:52:38;100484.33;;;2.20;94.71
34696;BME280;20918;51.138;17.370;2022-12-05T10:55:41;100479.62;;;2.26;94.69
34696;BME280;20918;51.138;17.370;2022-12-05T10:58:57;100480.13;;;2.31;94.64
34696;BME280;20918;51.138;17.370;2022-12-05T11:01:58;100480.44;;;2.39;94.66
34696;BME280;20918;51.138;17.370;2022-12-05T11:04:59;100482.13;;;2.40;94.14
34696;BME280;20918;51.138;17.370;2022-12-05T11:08:00;100485.37;;;2.43;94.07
34696;BME280;20918;51.138;17.370;2022-12-05T11:11:06;100483.10;;;2.44;93.71
34696;BME280;20918;51.138;17.370;2022-12-05T11:14:25;100476.11;;;2.45;93.70
34696;BME280;20918;51.138;17.370;2022-12-05T11:17:33;100474.37;;;2.51;93.88
34696;BME280;20918;51.138;17.370;2022-12-05T11:20:38;100472.72;;;2.56;93.72
34696;BME280;20918;51.138;17.370;2022-12-05T11:23:40;100476.70;;;2.61;93.79
34696;BME280;20918;51.138;17.370;2022-12-05T11:26:41;100473.77;;;2.66;93.46
34696;BME280;20918;51.138;17.370;2022-12-05T11:29:52;100471.28;;;2.70;93.39
34696;BME280;20918;51.138;17.370;2022-12-05T11:33:17;100470.02;;;2.76;93.36
34696;BME280;20918;51.138;17.370;2022-12-05T11:36:29;100469.22;;;2.81;93.24
34696;BME280;20918;51.138;17.370;2022-12-05T11:39:39;100459.00;;;2.83;92.96
34696;BME280;20918;51.138;17.370;2022-12-05T12:08:06;100455.94;;;2.89;92.17
34696;BME280;20918;51.138;17.370;2022-12-05T12:12:01;100454.88;;;2.92;92.21
34696;BME280;20918;51.138;17.370;2022-12-05T12:29:06;100443.13;;;2.98;91.88
34696;BME280;20918;51.138;17.370;2022-12-05T12:32:32;100447.79;;;3.00;91.92
34696;BME280;20918;51.138;17.370;2022-12-05T12:36:07;100447.79;;;3.00;91.74
34696;BME280;20918;51.138;17.370;2022-12-05T12:42:59;100440.05;;;3.04;91.76
34696;BME280;20918;51.138;17.370;2022-12-05T12:56:33;100442.13;;;3.11;91.64
34696;BME280;20918;51.138;17.370;2022-12-05T12:59:46;100450.13;;;3.10;91.43
34696;BME280;20918;51.138;17.370;2022-12-05T13:02:54;100446.86;;;3.06;91.29
34696;BME280;20918;51.138;17.370;2022-12-05T13:06:20;100445.94;;;3.07;91.44
34696;BME280;20918;51.138;17.370;2022-12-05T13:09:44;100440.95;;;3.10;91.45
34696;BME280;20918;51.138;17.370;2022-12-05T13:12:51;100448.44;;;3.09;91.29
34696;BME280;20918;51.138;17.370;2022-12-05T13:15:55;100446.86;;;3.06;91.26
34696;BME280;20918;51.138;17.370;2022-12-05T13:18:59;100446.86;;;3.06;91.27
34696;BME280;20918;51.138;17.370;2022-12-05T13:22:00;100451.18;;;3.07;91.33
34696;BME280;20918;51.138;17.370;2022-12-05T13:25:02;100452.75;;;3.10;91.32
34696;BME280;20918;51.138;17.370;2022-12-05T13:28:06;100455.24;;;3.11;91.27
34696;BME280;20918;51.138;17.370;2022-12-05T13:31:10;100450.96;;;3.10;91.28
34696;BME280;20918;51.138;17.370;2022-12-05T13:37:46;100456.81;;;3.14;91.29
34696;BME280;20918;51.138;17.370;2022-12-05T13:41:04;100457.64;;;3.14;91.22
34696;BME280;20918;51.138;17.370;2022-12-05T13:44:35;100452.62;;;3.11;91.19
34696;BME280;20918;51.138;17.370;2022-12-05T13:47:50;100452.27;;;3.10;91.22
34696;BME280;20918;51.138;17.370;2022-12-05T13:51:01;100450.13;;;3.10;91.26
34696;BME280;20918;51.138;17.370;2022-12-05T13:54:24;100449.74;;;3.09;91.24
34696;BME280;20918;51.138;17.370;2022-12-05T14:00:43;100460.84;;;3.12;91.33
34696;BME280;20918;51.138;17.370;2022-12-05T14:06:58;100453.39;;;3.19;91.30
34696;BME280;20918;51.138;17.370;2022-12-05T14:09:59;100461.61;;;3.20;91.24
34696;BME280;20918;51.138;17.370;2022-12-05T14:13:37;100464.84;;;3.24;91.22
34696;BME280;20918;51.138;17.370;2022-12-05T14:30:02;100442.80;;;3.26;91.03
34696;BME280;20918;51.138;17.370;2022-12-05T14:33:11;100445.90;;;3.26;90.92
34696;BME280;20918;51.138;17.370;2022-12-05T14:36:16;100443.02;;;3.23;90.93
34696;BME280;20918;51.138;17.370;2022-12-05T14:39:37;100449.00;;;3.25;91.03
34696;BME280;20918;51.138;17.370;2022-12-05T14:43:03;100441.36;;;3.22;90.93
34696;BME280;20918;51.138;17.370;2022-12-05T14:46:21;100446.35;;;3.20;90.95
34696;BME280;20918;51.138;17.370;2022-12-05T14:49:34;100439.06;;;3.18;90.98
34696;BME280;20918;51.138;17.370;2022-12-05T14:52:38;100440.02;;;3.17;91.02
34696;BME280;20918;51.138;17.370;2022-12-05T14:55:44;100439.80;;;3.20;91.15
34696;BME280;20918;51.138;17.370;2022-12-05T14:58:59;100445.52;;;3.19;91.11
34696;BME280;20918;51.138;17.370;2022-12-05T15:05:31;100448.02;;;3.21;91.05
34696;BME280;20918;51.138;17.370;2022-12-05T15:08:42;100450.64;;;3.21;91.11
34696;BME280;20918;51.138;17.370;2022-12-05T15:11:44;100452.33;;;3.22;91.14
34696;BME280;20918;51.138;17.370;2022-12-05T15:18:27;100444.97;;;3.27;91.15
34696;BME280;20918;51.138;17.370;2022-12-05T15:21:51;100435.66;;;3.28;91.18
34696;BME280;20918;51.138;17.370;2022-12-05T15:24:57;100444.84;;;3.28;91.06
34696;BME280;20918;51.138;17.370;2022-12-05T15:28:18;100438.77;;;3.28;91.08
34696;BME280;20918;51.138;17.370;2022-12-05T15:31:20;100450.92;;;3.29;91.15
34696;BME280;20918;51.138;17.370;2022-12-05T15:38:07;100443.05;;;3.29;91.11
34696;BME280;20918;51.138;17.370;2022-12-05T15:41:18;100443.05;;;3.29;91.14
34696;BME280;20918;51.138;17.370;2022-12-05T15:44:21;100434.00;;;3.27;91.01
34696;BME280;20918;51.138;17.370;2022-12-05T15:47:24;100442.34;;;3.27;91.08
34696;BME280;20918;51.138;17.370;2022-12-05T15:53:57;100440.08;;;3.28;91.17
34696;BME280;20918;51.138;17.370;2022-12-05T15:57:21;100430.31;;;3.30;91.22
34696;BME280;20918;51.138;17.370;2022-12-05T16:00:24;100429.71;;;3.32;91.18
34696;BME280;20918;51.138;17.370;2022-12-05T16:06:58;100434.38;;;3.34;91.18
34696;BME280;20918;51.138;17.370;2022-12-05T16:10:04;100437.16;;;3.38;91.29
34696;BME280;20918;51.138;17.370;2022-12-05T16:13:12;100433.92;;;3.40;91.23
34696;BME280;20918;51.138;17.370;2022-12-05T16:16:20;100444.19;;;3.43;91.25
34696;BME280;20918;51.138;17.370;2022-12-05T16:19:23;100435.73;;;3.45;91.20
34696;BME280;20918;51.138;17.370;2022-12-05T16:22:25;100437.78;;;3.47;91.20
34696;BME280;20918;51.138;17.370;2022-12-05T16:28:34;100440.50;;;3.46;91.09
34696;BME280;20918;51.138;17.370;2022-12-05T16:31:35;100442.45;;;3.49;91.20
34696;BME280;20918;51.138;17.370;2022-12-05T16:34:38;100440.30;;;3.54;91.22
34696;BME280;20918;51.138;17.370;2022-12-05T16:37:40;100443.55;;;3.58;91.23
34696;BME280;20918;51.138;17.370;2022-12-05T16:41:03;100450.71;;;3.62;91.21
34696;BME280;20918;51.138;17.370;2022-12-05T16:44:03;100447.27;;;3.67;91.12
34696;BME280;20918;51.138;17.370;2022-12-05T16:47:10;100450.02;;;3.71;91.08
34696;BME280;20918;51.138;17.370;2022-12-05T16:53:33;100447.89;;;3.76;91.01
34696;BME280;20918;51.138;17.370;2022-12-05T16:56:34;100448.62;;;3.78;91.00
34696;BME280;20918;51.138;17.370;2022-12-05T16:59:39;100455.19;;;3.78;90.96
34696;BME280;20918;51.138;17.370;2022-12-05T17:02:45;100449.45;;;3.78;90.94
34696;BME280;20918;51.138;17.370;2022-12-05T17:05:46;100454.47;;;3.81;90.92
34696;BME280;20918;51.138;17.370;2022-12-05T17:08:48;100452.67;;;3.82;90.93
34696;BME280;20918;51.138;17.370;2022-12-05T17:11:52;100465.22;;;3.84;90.93
34696;BME280;20918;51.138;17.370;2022-12-05T17:14:54;100462.11;;;3.85;90.90
34696;BME280;20918;51.138;17.370;2022-12-05T17:17:55;100460.94;;;3.83;90.88
34696;BME280;20918;51.138;17.370;2022-12-05T17:20:59;100458.52;;;3.86;90.89
34696;BME280;20918;51.138;17.370;2022-12-05T17:24:01;100458.08;;;3.86;90.87
34696;BME280;20918;51.138;17.370;2022-12-05T17:27:04;100452.83;;;3.86;90.94
34696;BME280;20918;51.138;17.370;2022-12-05T17:30:09;100454.98;;;3.92;90.99
34696;BME280;20918;51.138;17.370;2022-12-05T17:33:12;100462.28;;;3.94;90.90
34696;BME280;20918;51.138;17.370;2022-12-05T17:36:16;100464.91;;;3.94;90.83
34696;BME280;20918;51.138;17.370;2022-12-05T17:39:19;100465.73;;;3.95;90.85
34696;BME280;20918;51.138;17.370;2022-12-05T17:42:20;100461.17;;;3.97;90.89
34696;BME280;20918;51.138;17.370;2022-12-05T17:45:22;100465.59;;;3.96;90.77
34696;BME280;20918;51.138;17.370;2022-12-05T17:48:23;100457.95;;;3.93;90.81
34696;BME280;20918;51.138;17.370;2022-12-05T17:51:26;100465.11;;;3.97;90.86
34696;BME280;20918;51.138;17.370;2022-12-05T17:54:29;100463.45;;;3.96;90.79
34696;BME280;20918;51.138;17.370;2022-12-05T17:57:30;100465.11;;;3.97;90.83
34696;BME280;20918;51.138;17.370;2022-12-05T18:00:32;100463.94;;;3.95;90.78
34696;BME280;20918;51.138;17.370;2022-12-05T18:03:33;100456.30;;;3.98;90.89
34696;BME280;20918;51.138;17.370;2022-12-05T18:06:34;100464.30;;;4.02;90.97
34696;BME280;20918;51.138;17.370;2022-12-05T18:09:35;100467.55;;;4.06;90.92
34696;BME280;20918;51.138;17.370;2022-12-05T18:12:37;100463.61;;;4.06;90.79
34696;BME280;20918;51.138;17.370;2022-12-05T18:15:39;100463.36;;;4.03;90.79
34696;BME280;20918;51.138;17.370;2022-12-05T18:18:41;100463.36;;;4.03;90.87
34696;BME280;20918;51.138;17.370;2022-12-05T18:21:42;100461.57;;;4.03;90.94
34696;BME280;20918;51.138;17.370;2022-12-05T18:24:43;100457.39;;;4.07;91.03
34696;BME280;20918;51.138;17.370;2022-12-05T18:27:44;100458.95;;;4.03;90.86
34696;BME280;20918;51.138;17.370;2022-12-05T18:30:45;100467.54;;;4.00;90.83
34696;BME280;20918;51.138;17.370;2022-12-05T18:33:47;100462.14;;;3.96;90.82